createdAt,value
2017-08-16T00:01:58.142Z,18.80
2017-08-16T00:04:25.828Z,18.80
2017-08-16T00:06:53.437Z,18.80
2017-08-16T00:09:21.090Z,18.80
2017-08-16T00:11:48.685Z,18.70
2017-08-16T00:14:16.340Z,18.70
2017-08-16T00:16:43.959Z,18.70
2017-08-16T00:19:11.715Z,18.70
2017-08-16T00:21:39.251Z,18.70
2017-08-16T00:24:06.853Z,18.70
2017-08-16T00:26:35.107Z,18.60
2017-08-16T00:29:02.776Z,18.70
2017-08-16T00:31:30.401Z,18.70
2017-08-16T00:33:58.047Z,18.70
2017-08-16T00:36:25.780Z,18.60
2017-08-16T00:38:53.382Z,18.70
2017-08-16T00:41:21.046Z,18.80
2017-08-16T00:43:48.666Z,18.70
2017-08-16T00:46:16.228Z,18.70
2017-08-16T00:48:43.884Z,18.70
2017-08-16T00:51:11.530Z,18.70
2017-08-16T00:53:39.059Z,18.70
2017-08-16T00:56:06.706Z,18.70
2017-08-16T00:58:35.305Z,18.70
2017-08-16T01:01:02.915Z,18.70
2017-08-16T01:03:30.447Z,18.80
2017-08-16T01:05:58.111Z,18.80
2017-08-16T01:08:25.731Z,18.90
2017-08-16T01:10:53.319Z,18.90
2017-08-16T01:13:20.923Z,18.80
2017-08-16T01:15:48.493Z,18.80
2017-08-16T01:18:16.037Z,18.80
2017-08-16T01:20:43.722Z,18.70
2017-08-16T01:23:11.255Z,18.70
2017-08-16T01:25:38.844Z,18.70
2017-08-16T01:28:06.420Z,18.70
2017-08-16T01:30:34.017Z,18.60
2017-08-16T01:33:01.678Z,18.70
2017-08-16T01:35:29.321Z,18.60
2017-08-16T01:37:56.968Z,18.60
2017-08-16T01:40:24.629Z,18.70
2017-08-16T01:42:52.211Z,18.70
2017-08-16T01:45:19.863Z,18.60
2017-08-16T01:47:47.399Z,18.60
2017-08-16T01:50:14.963Z,18.50
2017-08-16T01:52:42.906Z,18.60
2017-08-16T01:55:10.476Z,18.70
2017-08-16T01:57:38.016Z,18.60
2017-08-16T02:00:05.602Z,18.70
2017-08-16T02:02:33.206Z,18.70
2017-08-16T02:05:00.867Z,18.70
2017-08-16T02:07:28.470Z,18.70
2017-08-16T02:09:56.122Z,18.70
2017-08-16T02:12:23.723Z,18.60
2017-08-16T02:14:51.337Z,18.60
2017-08-16T02:17:18.885Z,18.50
2017-08-16T02:19:46.492Z,18.50
2017-08-16T02:22:14.051Z,18.40
2017-08-16T02:24:42.175Z,18.40
2017-08-16T02:27:09.858Z,18.40
2017-08-16T02:29:37.450Z,18.40
2017-08-16T02:32:05.008Z,18.40
2017-08-16T02:34:32.582Z,18.30
2017-08-16T02:37:00.144Z,18.40
2017-08-16T02:39:27.729Z,18.30
2017-08-16T02:41:55.325Z,18.30
2017-08-16T02:44:22.903Z,18.30
2017-08-16T02:46:50.484Z,18.30
2017-08-16T02:49:18.018Z,18.30
2017-08-16T02:51:45.587Z,18.30
2017-08-16T02:54:13.115Z,18.30
2017-08-16T02:56:41.406Z,18.20
2017-08-16T02:59:09.060Z,18.30
2017-08-16T03:01:36.627Z,18.20
2017-08-16T03:04:04.815Z,18.20
2017-08-16T03:06:32.484Z,18.20
2017-08-16T03:09:00.035Z,18.20
2017-08-16T03:11:27.712Z,18.20
2017-08-16T03:13:55.373Z,18.20
2017-08-16T03:16:23.080Z,18.20
2017-08-16T03:18:50.669Z,18.30
2017-08-16T03:21:18.267Z,18.20
2017-08-16T03:23:45.831Z,18.20
2017-08-16T03:26:13.399Z,18.20
2017-08-16T03:28:43.399Z,18.30
2017-08-16T03:31:11.059Z,18.30
2017-08-16T03:33:38.679Z,18.30
2017-08-16T03:36:06.358Z,18.30
2017-08-16T03:38:34.011Z,18.20
2017-08-16T03:41:01.742Z,18.20
2017-08-16T03:43:29.355Z,18.20
2017-08-16T03:45:57.027Z,18.20
2017-08-16T03:48:25.009Z,18.20
2017-08-16T03:50:52.668Z,18.20
2017-08-16T03:53:20.298Z,18.10
2017-08-16T03:55:47.985Z,18.10
2017-08-16T03:58:15.560Z,18.10
2017-08-16T04:00:43.228Z,18.20
2017-08-16T04:03:10.856Z,18.20
2017-08-16T04:05:38.469Z,18.20
2017-08-16T04:08:06.099Z,18.10
2017-08-16T04:10:33.819Z,18.10
2017-08-16T04:13:01.415Z,18.00
2017-08-16T04:15:29.084Z,18.00
2017-08-16T04:17:56.764Z,18.00
2017-08-16T04:20:24.416Z,18.00
2017-08-16T04:22:52.139Z,18.10
2017-08-16T04:25:19.762Z,18.10
2017-08-16T04:27:48.333Z,18.00
2017-08-16T04:30:15.981Z,18.00
2017-08-16T04:32:43.660Z,18.00
2017-08-16T04:35:11.316Z,17.90
2017-08-16T04:37:38.954Z,17.90
2017-08-16T04:40:06.586Z,17.90
2017-08-16T04:42:34.239Z,17.80
2017-08-16T04:45:02.102Z,17.80
2017-08-16T04:47:29.708Z,17.80
2017-08-16T04:49:57.367Z,17.80
2017-08-16T04:52:24.970Z,17.70
2017-08-16T04:54:52.819Z,17.70
2017-08-16T04:57:20.528Z,17.80
2017-08-16T04:59:48.360Z,17.70
2017-08-16T05:02:16.018Z,17.80
2017-08-16T05:04:43.715Z,17.70
2017-08-16T05:07:11.352Z,17.70
2017-08-16T05:09:39.050Z,17.60
2017-08-16T05:12:06.708Z,17.70
2017-08-16T05:14:34.379Z,17.70
2017-08-16T05:17:02.109Z,17.70
2017-08-16T05:19:29.880Z,17.60
2017-08-16T05:21:57.446Z,17.60
2017-08-16T05:24:26.209Z,17.70
2017-08-16T05:26:57.981Z,17.70
2017-08-16T05:29:25.750Z,17.70
2017-08-16T05:31:53.422Z,17.70
2017-08-16T05:34:21.095Z,17.70
2017-08-16T05:36:48.712Z,17.70
2017-08-16T05:39:16.397Z,17.70
2017-08-16T05:41:44.002Z,17.80
2017-08-16T05:44:11.685Z,17.70
2017-08-16T05:46:39.296Z,17.80
2017-08-16T05:49:06.955Z,17.90
2017-08-16T05:51:34.500Z,17.90
2017-08-16T05:54:02.160Z,17.90
2017-08-16T05:56:29.753Z,17.90
2017-08-16T05:58:58.085Z,18.00
2017-08-16T06:01:25.706Z,18.10
2017-08-16T06:03:53.335Z,18.10
2017-08-16T06:06:20.952Z,18.20
2017-08-16T06:08:48.560Z,18.30
2017-08-16T06:11:16.183Z,18.20
2017-08-16T06:13:43.823Z,18.30
2017-08-16T06:16:11.364Z,18.40
2017-08-16T06:18:38.992Z,18.50
2017-08-16T06:21:06.613Z,18.50
2017-08-16T06:23:34.273Z,18.60
2017-08-16T06:26:01.889Z,18.60
2017-08-16T06:28:29.473Z,18.60
2017-08-16T06:30:57.090Z,18.80
2017-08-16T06:33:24.679Z,18.80
2017-08-16T06:35:52.301Z,18.90
2017-08-16T06:38:19.880Z,19.00
2017-08-16T06:40:47.540Z,19.00
2017-08-16T06:43:15.164Z,19.10
2017-08-16T06:45:42.818Z,19.10
2017-08-16T06:48:10.379Z,19.20
2017-08-16T06:50:37.985Z,19.40
2017-08-16T06:53:05.900Z,19.50
2017-08-16T06:55:33.566Z,19.60
2017-08-16T06:58:01.195Z,19.80
2017-08-16T07:00:28.799Z,19.80
2017-08-16T07:02:56.415Z,19.80
2017-08-16T07:05:24.048Z,19.80
2017-08-16T07:07:51.669Z,19.80
2017-08-16T07:10:19.277Z,19.80
2017-08-16T07:12:46.878Z,19.80
2017-08-16T07:15:14.531Z,19.90
2017-08-16T07:17:42.133Z,20.00
2017-08-16T07:20:09.806Z,20.20
2017-08-16T07:22:37.400Z,20.30
2017-08-16T07:25:06.193Z,20.30
2017-08-16T07:27:33.831Z,20.30
2017-08-16T07:30:01.478Z,20.30
2017-08-16T07:32:29.086Z,20.40
2017-08-16T07:34:56.792Z,20.30
2017-08-16T07:37:24.412Z,20.40
2017-08-16T07:39:52.097Z,20.60
2017-08-16T07:42:19.662Z,20.70
2017-08-16T07:44:47.275Z,20.90
2017-08-16T07:47:14.811Z,21.00
2017-08-16T07:49:42.428Z,21.00
2017-08-16T07:52:10.079Z,21.10
2017-08-16T07:54:37.661Z,21.20
2017-08-16T07:57:07.067Z,21.30
2017-08-16T07:59:34.681Z,21.30
2017-08-16T08:02:02.364Z,21.30
2017-08-16T08:04:29.984Z,21.50
2017-08-16T08:06:57.649Z,21.70
2017-08-16T08:09:25.276Z,21.70
2017-08-16T08:11:52.940Z,21.80
2017-08-16T08:14:20.557Z,21.80
2017-08-16T08:16:48.206Z,22.00
2017-08-16T08:19:15.820Z,22.10
2017-08-16T08:21:43.470Z,22.20
2017-08-16T08:24:11.086Z,22.30
2017-08-16T08:26:38.738Z,22.40
2017-08-16T08:29:06.479Z,22.40
2017-08-16T08:31:34.142Z,22.30
2017-08-16T08:34:01.675Z,22.40
2017-08-16T08:36:29.338Z,22.50
2017-08-16T08:38:56.988Z,22.50
2017-08-16T08:41:24.620Z,22.50
2017-08-16T08:43:52.230Z,22.60
2017-08-16T08:46:19.883Z,22.60
2017-08-16T08:48:47.440Z,22.80
2017-08-16T08:51:15.600Z,22.80
2017-08-16T08:53:43.242Z,22.80
2017-08-16T08:56:10.880Z,22.90
2017-08-16T08:58:38.488Z,22.90
2017-08-16T09:01:06.150Z,22.90
2017-08-16T09:03:33.699Z,23.00
2017-08-16T09:06:01.344Z,22.90
2017-08-16T09:08:28.973Z,22.90
2017-08-16T09:10:56.602Z,23.00
2017-08-16T09:13:24.208Z,23.00
2017-08-16T09:15:51.904Z,23.10
2017-08-16T09:18:19.527Z,23.00
2017-08-16T09:20:47.382Z,23.10
2017-08-16T09:23:15.658Z,23.20
2017-08-16T09:25:43.348Z,23.40
2017-08-16T09:28:10.896Z,23.50
2017-08-16T09:30:38.551Z,23.50
2017-08-16T09:33:06.097Z,23.60
2017-08-16T09:35:33.717Z,23.70
2017-08-16T09:38:01.358Z,23.60
2017-08-16T09:40:28.951Z,23.70
2017-08-16T09:42:56.617Z,23.90
2017-08-16T09:45:24.241Z,24.00
2017-08-16T09:47:51.904Z,24.10
2017-08-16T09:50:19.509Z,24.00
2017-08-16T09:52:47.188Z,23.90
2017-08-16T09:55:15.283Z,24.10
2017-08-16T09:57:42.936Z,24.20
2017-08-16T10:00:10.538Z,24.40
2017-08-16T10:02:38.104Z,24.60
2017-08-16T10:05:05.721Z,24.70
2017-08-16T10:07:33.356Z,24.70
2017-08-16T10:10:00.966Z,24.60
2017-08-16T10:12:28.576Z,24.70
2017-08-16T10:14:56.211Z,24.70
2017-08-16T10:17:23.861Z,24.60
2017-08-16T10:19:51.398Z,24.50
2017-08-16T10:22:18.988Z,24.50
2017-08-16T10:24:46.564Z,24.50
2017-08-16T10:27:14.238Z,24.60
2017-08-16T10:29:41.865Z,24.70
2017-08-16T10:32:09.436Z,24.70
2017-08-16T10:34:37.052Z,24.70
2017-08-16T10:37:04.732Z,24.80
2017-08-16T10:39:32.350Z,25.00
2017-08-16T10:42:00.030Z,25.10
2017-08-16T10:44:27.665Z,25.10
2017-08-16T10:46:55.423Z,25.10
2017-08-16T10:49:23.409Z,25.20
2017-08-16T10:51:51.067Z,25.30
2017-08-16T10:54:18.653Z,25.40
2017-08-16T10:56:46.351Z,25.50
2017-08-16T10:59:13.882Z,25.70
2017-08-16T11:01:41.423Z,25.90
2017-08-16T11:04:09.099Z,26.00
2017-08-16T11:06:36.691Z,26.00
2017-08-16T11:09:04.371Z,26.10
2017-08-16T11:11:31.967Z,26.20
2017-08-16T11:13:59.611Z,26.30
2017-08-16T11:16:27.208Z,26.60
2017-08-16T11:18:54.861Z,26.60
2017-08-16T11:21:23.163Z,26.60
2017-08-16T11:23:50.847Z,26.50
2017-08-16T11:26:18.433Z,26.60
2017-08-16T11:28:46.044Z,26.70
2017-08-16T11:31:13.634Z,26.70
2017-08-16T11:33:41.264Z,26.90
2017-08-16T11:36:08.956Z,26.90
2017-08-16T11:38:36.536Z,27.20
2017-08-16T11:41:04.106Z,27.20
2017-08-16T11:43:31.790Z,27.00
2017-08-16T11:45:59.420Z,27.20
2017-08-16T11:48:27.052Z,27.30
2017-08-16T11:50:54.644Z,27.40
2017-08-16T11:53:26.439Z,27.40
2017-08-16T11:55:54.042Z,27.40
2017-08-16T11:58:21.709Z,27.60
2017-08-16T12:00:49.322Z,27.70
2017-08-16T12:03:16.969Z,27.50
2017-08-16T12:05:44.579Z,27.30
2017-08-16T12:08:12.148Z,27.30
2017-08-16T12:10:39.921Z,27.50
2017-08-16T12:13:07.586Z,27.70
2017-08-16T12:15:35.192Z,27.80
2017-08-16T12:18:02.862Z,27.90
2017-08-16T12:20:30.472Z,28.00
2017-08-16T12:22:58.128Z,28.10
2017-08-16T12:25:27.017Z,28.20
2017-08-16T12:27:54.690Z,28.20
2017-08-16T12:30:22.279Z,28.40
2017-08-16T12:32:49.946Z,28.40
2017-08-16T12:35:17.565Z,28.30
2017-08-16T12:37:45.154Z,28.30
2017-08-16T12:40:12.751Z,28.40
2017-08-16T12:42:40.315Z,28.30
2017-08-16T12:45:07.931Z,28.30
2017-08-16T12:47:35.539Z,28.40
2017-08-16T12:50:03.144Z,28.60
2017-08-16T12:52:30.819Z,28.70
2017-08-16T12:54:58.478Z,28.90
2017-08-16T12:57:27.128Z,28.90
2017-08-16T12:59:54.823Z,28.90
2017-08-16T13:02:22.517Z,29.00
2017-08-16T13:04:50.123Z,28.90
2017-08-16T13:07:17.721Z,28.90
2017-08-16T13:09:45.387Z,29.10
2017-08-16T13:12:12.999Z,29.20
2017-08-16T13:14:40.820Z,29.30
2017-08-16T13:17:08.455Z,29.40
2017-08-16T13:19:36.101Z,29.50
2017-08-16T13:22:03.717Z,29.60
2017-08-16T13:24:31.430Z,29.80
2017-08-16T13:26:58.986Z,29.90
2017-08-16T13:29:28.506Z,30.00
2017-08-16T13:31:56.153Z,30.20
2017-08-16T13:34:23.892Z,30.50
2017-08-16T13:36:51.506Z,30.60
2017-08-16T13:39:19.218Z,30.70
2017-08-16T13:41:46.842Z,30.70
2017-08-16T13:44:14.471Z,30.50
2017-08-16T13:46:42.069Z,29.80
2017-08-16T13:49:09.701Z,29.90
2017-08-16T13:51:37.360Z,29.90
2017-08-16T13:54:04.999Z,29.90
2017-08-16T13:56:33.456Z,29.80
2017-08-16T13:59:01.007Z,29.90
2017-08-16T14:01:28.695Z,29.80
2017-08-16T14:03:56.338Z,29.90
2017-08-16T14:06:23.993Z,29.90
2017-08-16T14:08:51.603Z,29.90
2017-08-16T14:11:19.264Z,29.90
2017-08-16T14:13:46.889Z,29.90
2017-08-16T14:16:14.468Z,30.00
2017-08-16T14:18:42.065Z,30.10
2017-08-16T14:21:09.667Z,30.40
2017-08-16T14:23:37.514Z,30.60
2017-08-16T14:26:05.131Z,30.70
2017-08-16T14:28:32.777Z,30.90
2017-08-16T14:31:00.454Z,31.00
2017-08-16T14:33:28.060Z,31.00
2017-08-16T14:35:55.717Z,31.00
2017-08-16T14:38:23.401Z,30.90
2017-08-16T14:40:51.010Z,30.80
2017-08-16T14:43:18.677Z,30.40
2017-08-16T14:45:46.291Z,30.10
2017-08-16T14:48:13.957Z,30.20
2017-08-16T14:50:41.593Z,30.50
2017-08-16T14:53:09.265Z,30.80
2017-08-16T14:55:37.351Z,31.10
2017-08-16T14:58:05.023Z,31.40
2017-08-16T15:00:32.651Z,31.60
2017-08-16T15:03:00.336Z,31.90
2017-08-16T15:05:28.026Z,32.00
2017-08-16T15:07:55.655Z,31.70
2017-08-16T15:10:23.326Z,31.70
2017-08-16T15:12:50.980Z,31.70
2017-08-16T15:15:18.670Z,31.70
2017-08-16T15:17:46.236Z,31.80
2017-08-16T15:20:13.895Z,31.70
2017-08-16T15:22:41.485Z,31.60
2017-08-16T15:25:09.145Z,31.40
2017-08-16T15:27:37.369Z,31.30
2017-08-16T15:30:05.032Z,31.20
2017-08-16T15:32:32.609Z,31.20
2017-08-16T15:35:00.270Z,31.00
2017-08-16T15:37:28.199Z,30.70
2017-08-16T15:39:55.913Z,30.50
2017-08-16T15:42:23.448Z,30.30
2017-08-16T15:44:51.056Z,30.10
2017-08-16T15:47:18.584Z,29.90
2017-08-16T15:49:46.143Z,29.80
2017-08-16T15:52:13.673Z,29.50
2017-08-16T15:54:41.263Z,29.40
2017-08-16T15:57:08.884Z,29.10
2017-08-16T15:59:36.548Z,28.90
2017-08-16T16:02:04.177Z,28.70
2017-08-16T16:04:31.837Z,28.70
2017-08-16T16:06:59.664Z,28.70
2017-08-16T16:09:27.305Z,28.70
2017-08-16T16:11:54.984Z,28.60
2017-08-16T16:14:22.609Z,28.50
2017-08-16T16:16:50.287Z,28.60
2017-08-16T16:19:17.864Z,28.50
2017-08-16T16:21:45.481Z,28.50
2017-08-16T16:24:13.143Z,28.40
2017-08-16T16:26:40.752Z,28.40
2017-08-16T16:29:08.400Z,28.40
2017-08-16T16:31:36.049Z,28.40
2017-08-16T16:34:03.716Z,28.30
2017-08-16T16:36:31.273Z,28.30
2017-08-16T16:38:58.892Z,28.20
2017-08-16T16:41:26.602Z,28.20
2017-08-16T16:43:54.225Z,28.10
2017-08-16T16:46:21.872Z,28.10
2017-08-16T16:48:49.481Z,28.00
2017-08-16T16:51:17.137Z,28.00
2017-08-16T16:53:44.774Z,27.90
2017-08-16T16:56:12.426Z,27.60
2017-08-16T16:58:40.033Z,27.50
2017-08-16T17:01:07.645Z,27.40
2017-08-16T17:03:35.256Z,27.40
2017-08-16T17:06:02.893Z,27.20
2017-08-16T17:08:30.560Z,27.20
2017-08-16T17:10:58.208Z,27.00
2017-08-16T17:13:25.874Z,26.90
2017-08-16T17:15:53.489Z,26.70
2017-08-16T17:18:21.149Z,26.50
2017-08-16T17:20:48.745Z,26.40
2017-08-16T17:23:16.361Z,26.30
2017-08-16T17:25:44.022Z,26.10
2017-08-16T17:28:11.646Z,26.00
2017-08-16T17:30:39.290Z,25.90
2017-08-16T17:33:06.905Z,25.70
2017-08-16T17:35:34.554Z,25.70
2017-08-16T17:38:02.212Z,25.60
2017-08-16T17:40:29.921Z,25.60
2017-08-16T17:42:57.653Z,25.60
2017-08-16T17:45:25.368Z,25.50
2017-08-16T17:47:53.000Z,25.40
2017-08-16T17:50:20.606Z,25.40
2017-08-16T17:52:48.250Z,25.20
2017-08-16T17:55:15.865Z,25.00
2017-08-16T17:57:43.502Z,25.10
2017-08-16T18:00:11.091Z,24.90
2017-08-16T18:02:38.792Z,24.70
2017-08-16T18:05:06.419Z,24.60
2017-08-16T18:07:33.963Z,24.50
2017-08-16T18:10:01.610Z,24.40
2017-08-16T18:12:29.253Z,24.20
2017-08-16T18:14:56.941Z,24.10
2017-08-16T18:17:24.565Z,24.00
2017-08-16T18:19:52.171Z,23.80
2017-08-16T18:22:19.801Z,23.60
2017-08-16T18:24:47.407Z,23.50
2017-08-16T18:27:15.041Z,23.30
2017-08-16T18:29:42.669Z,23.30
2017-08-16T18:32:10.301Z,23.10
2017-08-16T18:34:37.869Z,23.10
2017-08-16T18:37:05.500Z,23.10
2017-08-16T18:39:33.103Z,23.00
2017-08-16T18:42:00.676Z,23.00
2017-08-16T18:44:28.309Z,23.00
2017-08-16T18:46:55.901Z,22.80
2017-08-16T18:49:23.545Z,22.60
2017-08-16T18:51:51.141Z,22.50
2017-08-16T18:54:18.779Z,22.50
2017-08-16T18:56:46.385Z,22.50
2017-08-16T18:59:14.038Z,22.40
2017-08-16T19:01:41.656Z,22.30
2017-08-16T19:04:09.262Z,22.20
2017-08-16T19:06:36.882Z,22.20
2017-08-16T19:09:04.505Z,22.10
2017-08-16T19:11:32.158Z,22.00
2017-08-16T19:13:59.863Z,21.80
2017-08-16T19:16:27.570Z,21.80
2017-08-16T19:18:55.169Z,21.80
2017-08-16T19:21:22.808Z,21.70
2017-08-16T19:23:50.380Z,21.60
2017-08-16T19:26:17.980Z,21.70
2017-08-16T19:28:45.578Z,21.60
2017-08-16T19:31:13.185Z,21.60
2017-08-16T19:33:40.813Z,21.50
2017-08-16T19:36:08.401Z,21.40
2017-08-16T19:38:36.050Z,21.30
2017-08-16T19:41:03.677Z,21.30
2017-08-16T19:43:31.333Z,21.30
2017-08-16T19:45:58.949Z,21.30
2017-08-16T19:48:26.546Z,21.30
2017-08-16T19:50:54.177Z,21.20
2017-08-16T19:53:21.818Z,21.30
2017-08-16T19:55:49.456Z,21.20
2017-08-16T19:58:17.056Z,21.20
2017-08-16T20:00:44.730Z,21.10
2017-08-16T20:03:12.328Z,21.10
2017-08-16T20:05:39.933Z,21.10
2017-08-16T20:08:07.538Z,21.00
2017-08-16T20:10:36.975Z,21.00
2017-08-16T20:13:04.628Z,21.00
2017-08-16T20:15:32.192Z,21.00
2017-08-16T20:17:59.872Z,21.00
2017-08-16T20:20:27.463Z,21.10
2017-08-16T20:22:55.104Z,21.10
2017-08-16T20:25:22.692Z,21.10
2017-08-16T20:27:51.162Z,21.00
2017-08-16T20:30:18.778Z,21.00
2017-08-16T20:32:46.380Z,20.90
2017-08-16T20:35:14.018Z,21.00
2017-08-16T20:37:41.622Z,21.10
2017-08-16T20:40:09.273Z,21.00
2017-08-16T20:42:36.865Z,21.00
2017-08-16T20:45:04.395Z,21.00
2017-08-16T20:47:31.980Z,21.00
2017-08-16T20:49:59.563Z,20.90
2017-08-16T20:52:27.168Z,20.90
2017-08-16T20:54:55.267Z,21.00
2017-08-16T20:57:22.897Z,20.90
2017-08-16T20:59:50.433Z,20.90
2017-08-16T21:02:18.024Z,20.90
2017-08-16T21:04:45.575Z,20.90
2017-08-16T21:07:13.152Z,21.00
2017-08-16T21:09:40.774Z,20.90
2017-08-16T21:12:08.358Z,20.90
2017-08-16T21:14:35.998Z,20.90
2017-08-16T21:17:03.572Z,20.90
2017-08-16T21:19:31.196Z,20.90
2017-08-16T21:21:58.898Z,20.80
2017-08-16T21:24:26.611Z,20.80
2017-08-16T21:26:54.229Z,20.80
2017-08-16T21:29:21.890Z,20.90
2017-08-16T21:31:49.490Z,20.90
2017-08-16T21:34:17.137Z,20.90
2017-08-16T21:36:44.748Z,20.80
2017-08-16T21:39:12.426Z,20.80
2017-08-16T21:41:40.014Z,20.90
2017-08-16T21:44:07.629Z,20.90
2017-08-16T21:46:35.286Z,20.90
2017-08-16T21:49:02.882Z,21.00
2017-08-16T21:51:30.585Z,20.90
2017-08-16T21:53:58.228Z,20.90
2017-08-16T21:56:25.956Z,20.90
2017-08-16T21:58:53.550Z,21.00
2017-08-16T22:01:21.204Z,21.00
2017-08-16T22:03:48.806Z,20.90
2017-08-16T22:06:16.456Z,20.90
2017-08-16T22:08:44.071Z,20.90
2017-08-16T22:11:11.690Z,20.90
2017-08-16T22:13:39.333Z,20.90
2017-08-16T22:16:06.921Z,20.90
2017-08-16T22:18:34.511Z,21.00
2017-08-16T22:21:02.133Z,20.90
2017-08-16T22:23:29.866Z,20.80
2017-08-16T22:25:57.515Z,20.80
2017-08-16T22:28:25.183Z,20.80
2017-08-16T22:30:52.804Z,20.80
2017-08-16T22:33:20.384Z,20.70
2017-08-16T22:35:47.996Z,20.80
2017-08-16T22:38:15.589Z,20.60
2017-08-16T22:40:43.175Z,20.50
2017-08-16T22:43:10.798Z,20.50
2017-08-16T22:45:38.440Z,20.40
2017-08-16T22:48:06.004Z,20.40
2017-08-16T22:50:33.585Z,20.40
2017-08-16T22:53:01.255Z,20.30
2017-08-16T22:55:28.835Z,20.30
2017-08-16T22:57:56.506Z,20.20
2017-08-16T23:00:24.105Z,20.20
2017-08-16T23:02:51.765Z,20.20
2017-08-16T23:05:19.366Z,20.30
2017-08-16T23:07:46.945Z,20.20
2017-08-16T23:10:14.588Z,20.20
2017-08-16T23:12:42.173Z,20.20
2017-08-16T23:15:09.789Z,20.30
2017-08-16T23:17:37.369Z,20.30
2017-08-16T23:20:04.964Z,20.40
2017-08-16T23:22:32.577Z,20.40
2017-08-16T23:25:00.188Z,20.30
2017-08-16T23:27:27.851Z,20.30
2017-08-16T23:29:55.479Z,20.20
2017-08-16T23:32:23.109Z,20.30
2017-08-16T23:34:50.697Z,20.30
2017-08-16T23:37:18.305Z,20.20
2017-08-16T23:39:45.877Z,20.30
2017-08-16T23:42:13.470Z,20.30
2017-08-16T23:44:41.114Z,20.30
2017-08-16T23:47:08.729Z,20.30
2017-08-16T23:49:36.307Z,20.30
2017-08-16T23:52:03.865Z,20.30
2017-08-16T23:54:31.470Z,20.20
2017-08-16T23:56:59.051Z,20.20
2017-08-16T23:59:26.666Z,20.20
